createdAt,value
2018-05-19T00:01:23.084Z,14.80
2018-05-19T00:03:49.359Z,14.83
2018-05-19T00:06:15.583Z,17.53
2018-05-19T00:08:41.798Z,15.50
2018-05-19T00:11:08.440Z,15.83
2018-05-19T00:13:35.043Z,14.07
2018-05-19T00:16:02.043Z,14.70
2018-05-19T00:18:28.300Z,15.70
2018-05-19T00:20:54.926Z,14.98
2018-05-19T00:23:21.166Z,14.30
2018-05-19T00:25:47.402Z,14.80
2018-05-19T00:28:13.608Z,14.83
2018-05-19T00:30:39.814Z,15.83
2018-05-19T00:33:06.018Z,14.60
2018-05-19T00:35:32.234Z,14.67
2018-05-19T00:37:58.434Z,15.23
2018-05-19T00:40:24.645Z,14.77
2018-05-19T00:42:54.020Z,14.80
2018-05-19T00:45:20.268Z,15.52
2018-05-19T00:47:46.486Z,17.17
2018-05-19T00:50:12.713Z,15.30
2018-05-19T00:52:38.914Z,16.48
2018-05-19T00:55:05.552Z,15.43
2018-05-19T00:57:31.830Z,15.65
2018-05-19T00:59:58.051Z,15.38
2018-05-19T01:02:24.299Z,15.80
2018-05-19T01:04:50.513Z,15.52
2018-05-19T01:07:16.741Z,14.98
2018-05-19T01:09:42.984Z,15.60
2018-05-19T01:12:09.255Z,16.25
2018-05-19T01:14:36.388Z,15.00
2018-05-19T01:17:02.645Z,15.85
2018-05-19T01:19:28.874Z,15.60
2018-05-19T01:21:55.105Z,14.07
2018-05-19T01:24:21.362Z,16.85
2018-05-19T01:26:47.642Z,17.25
2018-05-19T01:29:14.224Z,16.23
2018-05-19T01:31:40.471Z,16.55
2018-05-19T01:34:06.703Z,15.05
2018-05-19T01:36:32.915Z,17.08
2018-05-19T01:38:59.143Z,15.60
2018-05-19T01:41:26.011Z,16.95
2018-05-19T01:43:52.249Z,14.75
2018-05-19T01:46:18.507Z,16.45
2018-05-19T01:48:44.704Z,14.52
2018-05-19T01:51:11.299Z,15.93
2018-05-19T01:53:37.589Z,15.45
2018-05-19T01:56:04.166Z,17.70
2018-05-19T01:58:30.393Z,15.68
2018-05-19T02:00:56.661Z,15.73
2018-05-19T02:03:22.886Z,16.00
2018-05-19T02:05:49.096Z,16.27
2018-05-19T02:08:15.369Z,16.05
2018-05-19T02:10:41.581Z,16.17
2018-05-19T02:13:08.185Z,17.75
2018-05-19T02:15:34.807Z,16.25
2018-05-19T02:18:01.045Z,15.00
2018-05-19T02:20:27.289Z,16.45
2018-05-19T02:22:53.532Z,16.83
2018-05-19T02:25:19.736Z,16.75
2018-05-19T02:27:45.989Z,16.33
2018-05-19T02:30:12.224Z,17.50
2018-05-19T02:32:38.430Z,16.25
2018-05-19T02:35:04.658Z,17.00
2018-05-19T02:37:30.910Z,16.50
2018-05-19T02:39:57.493Z,16.70
2018-05-19T02:42:25.126Z,16.40
2018-05-19T02:44:51.382Z,15.30
2018-05-19T02:47:17.613Z,15.23
2018-05-19T02:49:43.819Z,15.82
2018-05-19T02:52:10.063Z,15.60
2018-05-19T02:54:36.296Z,14.98
2018-05-19T02:57:02.527Z,15.98
2018-05-19T02:59:28.816Z,13.85
2018-05-19T03:01:55.378Z,15.98
2018-05-19T03:04:21.582Z,15.43
2018-05-19T03:06:48.183Z,17.30
2018-05-19T03:09:14.413Z,15.82
2018-05-19T03:11:40.647Z,16.92
2018-05-19T03:14:06.875Z,16.17
2018-05-19T03:16:33.097Z,15.50
2018-05-19T03:18:59.303Z,16.55
2018-05-19T03:21:25.549Z,18.25
2018-05-19T03:23:51.790Z,15.07
2018-05-19T03:26:17.999Z,16.23
2018-05-19T03:28:45.269Z,15.90
2018-05-19T03:31:11.479Z,15.35
2018-05-19T03:33:37.691Z,13.65
2018-05-19T03:36:03.922Z,14.68
2018-05-19T03:38:30.175Z,15.27
2018-05-19T03:40:56.413Z,15.40
2018-05-19T03:43:22.661Z,16.52
2018-05-19T03:45:48.869Z,15.27
2018-05-19T03:48:15.084Z,15.02
2018-05-19T03:50:41.320Z,15.40
2018-05-19T03:53:07.523Z,15.35
2018-05-19T03:55:33.752Z,15.48
2018-05-19T03:58:12.305Z,17.08
2018-05-19T04:00:51.612Z,16.30
2018-05-19T04:03:18.752Z,15.35
2018-05-19T04:05:44.970Z,15.18
2018-05-19T04:08:11.204Z,13.93
2018-05-19T04:10:37.487Z,14.85
2018-05-19T04:13:04.060Z,14.87
2018-05-19T04:15:30.255Z,15.40
2018-05-19T04:17:56.970Z,14.75
2018-05-19T04:20:23.241Z,13.73
2018-05-19T04:22:49.463Z,14.57
2018-05-19T04:25:15.682Z,15.05
2018-05-19T04:27:41.944Z,14.90
2018-05-19T04:30:08.182Z,15.18
2018-05-19T04:32:34.394Z,14.90
2018-05-19T04:35:00.620Z,16.25
2018-05-19T04:37:27.809Z,14.65
2018-05-19T04:39:54.080Z,15.05
2018-05-19T04:42:20.320Z,15.05
2018-05-19T04:44:46.540Z,16.05
2018-05-19T04:47:12.772Z,17.70
2018-05-19T04:49:39.000Z,17.58
2018-05-19T04:52:05.327Z,16.00
2018-05-19T04:54:31.554Z,15.15
2018-05-19T04:56:57.841Z,16.45
2018-05-19T04:59:24.022Z,15.40
2018-05-19T05:01:51.055Z,15.90
2018-05-19T05:04:17.290Z,15.60
2018-05-19T05:06:43.565Z,15.95
2018-05-19T05:09:09.826Z,16.00
2018-05-19T05:11:36.436Z,15.85
2018-05-19T05:14:02.803Z,17.02
2018-05-19T05:16:29.034Z,15.68
2018-05-19T05:18:55.285Z,16.58
2018-05-19T05:21:21.503Z,16.65
2018-05-19T05:23:47.787Z,15.77
2018-05-19T05:26:14.002Z,16.12
2018-05-19T05:28:40.210Z,15.52
2018-05-19T05:31:06.423Z,14.65
2018-05-19T05:33:32.710Z,15.13
2018-05-19T05:35:59.388Z,14.73
2018-05-19T05:38:25.549Z,13.90
2018-05-19T05:40:51.796Z,15.70
2018-05-19T05:43:18.438Z,14.75
2018-05-19T05:45:44.631Z,14.27
2018-05-19T05:48:10.908Z,15.48
2018-05-19T05:50:37.514Z,14.70
2018-05-19T05:53:03.749Z,15.75
2018-05-19T05:55:30.018Z,13.60
2018-05-19T05:57:56.274Z,14.77
2018-05-19T06:00:22.480Z,14.90
2018-05-19T06:02:48.691Z,15.68
2018-05-19T06:05:15.016Z,15.60
2018-05-19T06:07:41.211Z,15.63
2018-05-19T06:10:07.624Z,14.93
2018-05-19T06:12:33.826Z,16.73
2018-05-19T06:15:00.060Z,15.13
2018-05-19T06:17:26.295Z,16.25
2018-05-19T06:19:52.539Z,14.43
2018-05-19T06:22:18.765Z,15.43
2018-05-19T06:24:44.995Z,14.65
2018-05-19T06:27:11.206Z,15.45
2018-05-19T06:29:37.494Z,15.18
2018-05-19T06:32:03.726Z,15.27
2018-05-19T06:34:30.312Z,14.57
2018-05-19T06:36:56.541Z,14.70
2018-05-19T06:39:22.790Z,14.63
2018-05-19T06:41:49.020Z,14.97
2018-05-19T06:44:15.294Z,14.90
2018-05-19T06:46:41.545Z,15.10
2018-05-19T06:49:07.771Z,16.15
2018-05-19T06:51:37.055Z,15.67
2018-05-19T06:54:03.296Z,15.35
2018-05-19T06:56:29.585Z,16.13
2018-05-19T06:58:56.455Z,14.73
2018-05-19T07:01:22.723Z,12.70
2018-05-19T07:03:48.967Z,15.30
2018-05-19T07:06:15.221Z,14.23
2018-05-19T07:08:42.737Z,14.43
2018-05-19T07:11:08.960Z,15.20
2018-05-19T07:13:35.173Z,14.60
2018-05-19T07:16:01.384Z,15.10
2018-05-19T07:18:27.619Z,14.77
2018-05-19T07:20:53.843Z,14.07
2018-05-19T07:23:20.053Z,13.23
2018-05-19T07:25:46.592Z,15.13
2018-05-19T07:28:13.766Z,14.60
2018-05-19T07:30:39.992Z,13.47
2018-05-19T07:33:06.235Z,12.73
2018-05-19T07:35:32.461Z,14.70
2018-05-19T07:37:58.707Z,14.43
2018-05-19T07:40:24.930Z,14.37
2018-05-19T07:42:51.208Z,15.30
2018-05-19T07:45:17.791Z,15.63
2018-05-19T07:47:44.015Z,14.23
2018-05-19T07:50:10.273Z,16.00
2018-05-19T07:52:36.452Z,14.50
2018-05-19T07:55:02.681Z,15.17
2018-05-19T07:57:28.957Z,14.40
2018-05-19T07:59:55.210Z,14.67
2018-05-19T08:02:21.800Z,14.43
2018-05-19T08:04:48.058Z,14.77
2018-05-19T08:07:14.260Z,14.13
2018-05-19T08:09:40.478Z,15.13
2018-05-19T08:12:06.719Z,14.80
2018-05-19T08:14:32.957Z,14.00
2018-05-19T08:16:59.192Z,15.23
2018-05-19T08:19:25.466Z,15.70
2018-05-19T08:21:52.314Z,14.10
2018-05-19T08:24:18.543Z,14.23
2018-05-19T08:26:46.890Z,13.20
2018-05-19T08:29:13.144Z,14.37
2018-05-19T08:31:39.391Z,15.17
2018-05-19T08:34:05.605Z,13.97
2018-05-19T08:36:31.843Z,14.60
2018-05-19T08:38:58.068Z,13.73
2018-05-19T08:41:24.358Z,13.50
2018-05-19T08:43:51.008Z,14.57
2018-05-19T08:46:17.244Z,13.60
2018-05-19T08:48:44.105Z,13.67
2018-05-19T08:51:10.320Z,12.93
2018-05-19T08:53:36.558Z,11.60
2018-05-19T08:56:02.810Z,13.00
2018-05-19T08:58:29.063Z,12.77
2018-05-19T09:00:55.342Z,11.37
2018-05-19T09:03:21.588Z,12.10
2018-05-19T09:05:47.809Z,13.17
2018-05-19T09:08:14.058Z,12.27
2018-05-19T09:10:40.309Z,10.60
2018-05-19T09:13:06.907Z,12.00
2018-05-19T09:15:33.163Z,11.23
2018-05-19T09:17:59.416Z,11.17
2018-05-19T09:20:26.062Z,10.40
2018-05-19T09:22:52.280Z,10.83
2018-05-19T09:25:18.918Z,11.77
2018-05-19T09:27:45.627Z,10.17
2018-05-19T09:30:12.617Z,11.67
2018-05-19T09:32:38.890Z,10.37
2018-05-19T09:35:05.147Z,11.17
2018-05-19T09:37:31.373Z,11.67
2018-05-19T09:39:57.644Z,12.27
2018-05-19T09:42:23.855Z,11.87
2018-05-19T09:44:50.086Z,11.37
2018-05-19T09:47:16.443Z,12.37
2018-05-19T09:49:43.021Z,13.33
2018-05-19T09:52:09.255Z,12.50
2018-05-19T09:54:35.522Z,13.17
2018-05-19T09:57:01.732Z,12.60
2018-05-19T09:59:28.337Z,11.80
2018-05-19T10:01:54.611Z,11.97
2018-05-19T10:04:20.834Z,12.63
2018-05-19T10:06:47.063Z,13.97
2018-05-19T10:09:13.316Z,12.50
2018-05-19T10:11:39.647Z,12.93
2018-05-19T10:14:05.778Z,12.10
2018-05-19T10:16:32.037Z,12.93
2018-05-19T10:18:58.292Z,16.50
2018-05-19T10:21:24.500Z,13.40
2018-05-19T10:23:50.706Z,12.90
2018-05-19T10:26:16.973Z,12.13
2018-05-19T10:28:43.446Z,11.20
2018-05-19T10:31:09.780Z,10.20
2018-05-19T10:33:35.994Z,10.40
2018-05-19T10:36:02.216Z,9.90
2018-05-19T10:38:28.585Z,9.50
2018-05-19T10:40:54.852Z,11.10
2018-05-19T10:43:21.453Z,10.10
2018-05-19T10:45:47.692Z,8.60
2018-05-19T10:48:13.911Z,8.77
2018-05-19T10:50:40.137Z,8.77
2018-05-19T10:53:06.400Z,9.97
2018-05-19T10:55:32.996Z,9.43
2018-05-19T10:57:59.609Z,11.37
2018-05-19T11:00:25.866Z,10.60
2018-05-19T11:02:52.098Z,10.90
2018-05-19T11:05:18.291Z,10.73
2018-05-19T11:07:44.529Z,10.67
2018-05-19T11:10:10.738Z,11.83
2018-05-19T11:12:37.002Z,12.93
2018-05-19T11:15:03.276Z,12.00
2018-05-19T11:17:29.874Z,24.27
2018-05-19T11:19:57.106Z,16.13
2018-05-19T11:22:23.352Z,19.33
2018-05-19T11:24:49.578Z,12.40
2018-05-19T11:27:15.800Z,14.70
2018-05-19T11:29:42.040Z,29.60
2018-05-19T11:32:08.286Z,14.90
2018-05-19T11:34:35.223Z,28.20
2018-05-19T11:37:01.466Z,14.13
2018-05-19T11:39:27.715Z,13.87
2018-05-19T11:41:53.961Z,12.67
2018-05-19T11:44:20.176Z,12.67
2018-05-19T11:46:46.422Z,12.10
2018-05-19T11:49:12.652Z,12.07
2018-05-19T11:51:38.858Z,11.60
2018-05-19T11:54:05.092Z,11.20
2018-05-19T11:56:31.288Z,11.93
2018-05-19T11:58:57.511Z,11.37
2018-05-19T12:01:25.021Z,12.40
2018-05-19T12:03:51.258Z,12.17
2018-05-19T12:06:17.489Z,12.63
2018-05-19T12:08:43.696Z,12.60
2018-05-19T12:11:09.942Z,12.80
2018-05-19T12:13:36.167Z,11.90
2018-05-19T12:16:02.417Z,12.13
2018-05-19T12:18:28.719Z,12.37
2018-05-19T12:20:54.920Z,12.47
2018-05-19T12:23:21.516Z,11.90
2018-05-19T12:25:47.813Z,12.17
2018-05-19T12:28:14.054Z,12.77
2018-05-19T12:30:40.363Z,10.80
2018-05-19T12:33:06.650Z,12.03
2018-05-19T12:35:32.850Z,11.10
2018-05-19T12:38:00.078Z,11.17
2018-05-19T12:40:26.306Z,11.07
2018-05-19T12:42:52.504Z,12.07
2018-05-19T12:45:19.135Z,11.50
2018-05-19T12:47:45.381Z,11.10
2018-05-19T12:50:11.640Z,12.17
2018-05-19T12:52:37.884Z,10.80
2018-05-19T12:55:04.163Z,12.20
2018-05-19T12:57:30.434Z,11.40
2018-05-19T12:59:56.684Z,10.63
2018-05-19T13:02:22.889Z,11.00
2018-05-19T13:04:49.128Z,10.47
2018-05-19T13:07:15.378Z,10.97
2018-05-19T13:09:41.611Z,8.87
2018-05-19T13:12:07.841Z,10.60
2018-05-19T13:14:34.080Z,9.23
2018-05-19T13:17:00.307Z,9.60
2018-05-19T13:19:26.535Z,9.20
2018-05-19T13:21:52.832Z,9.23
2018-05-19T13:24:19.046Z,9.23
2018-05-19T13:26:45.442Z,11.10
2018-05-19T13:29:11.749Z,9.67
2018-05-19T13:31:38.009Z,10.60
2018-05-19T13:34:04.891Z,10.33
2018-05-19T13:36:31.161Z,9.87
2018-05-19T13:38:57.387Z,9.83
2018-05-19T13:41:23.667Z,10.43
2018-05-19T13:43:49.876Z,10.27
2018-05-19T13:46:16.124Z,9.30
2018-05-19T13:48:43.211Z,8.43
2018-05-19T13:51:11.787Z,10.17
2018-05-19T13:53:38.000Z,9.27
2018-05-19T13:56:04.250Z,10.07
2018-05-19T13:58:30.501Z,10.00
2018-05-19T14:00:56.708Z,9.23
2018-05-19T14:03:23.284Z,9.37
2018-05-19T14:05:49.534Z,9.10
2018-05-19T14:08:15.759Z,8.73
2018-05-19T14:10:42.009Z,9.13
2018-05-19T14:13:08.252Z,9.47
2018-05-19T14:15:34.531Z,8.50
2018-05-19T14:18:00.774Z,9.13
2018-05-19T14:20:27.049Z,8.70
2018-05-19T14:22:53.677Z,8.63
2018-05-19T14:25:20.255Z,9.63
2018-05-19T14:27:47.552Z,8.53
2018-05-19T14:30:13.772Z,8.73
2018-05-19T14:32:40.009Z,8.60
2018-05-19T14:35:06.314Z,7.40
2018-05-19T14:37:33.190Z,6.63
2018-05-19T14:39:59.441Z,8.20
2018-05-19T14:42:25.717Z,8.70
2018-05-19T14:44:52.932Z,7.10
2018-05-19T14:47:19.196Z,10.10
2018-05-19T14:49:45.586Z,9.40
2018-05-19T14:52:11.806Z,9.73
2018-05-19T14:54:38.422Z,7.93
2018-05-19T14:57:04.624Z,8.20
2018-05-19T14:59:30.897Z,8.73
2018-05-19T15:01:57.160Z,8.30
2018-05-19T15:04:23.449Z,8.70
2018-05-19T15:06:49.695Z,7.83
2018-05-19T15:09:15.940Z,9.80
2018-05-19T15:11:42.220Z,8.17
2018-05-19T15:14:08.469Z,8.47
2018-05-19T15:16:35.110Z,8.17
2018-05-19T15:19:01.374Z,8.60
2018-05-19T15:21:27.696Z,9.03
2018-05-19T15:23:54.496Z,8.60
2018-05-19T15:26:21.109Z,8.33
2018-05-19T15:28:47.392Z,7.90
2018-05-19T15:31:13.611Z,7.50
2018-05-19T15:33:40.233Z,8.33
2018-05-19T15:36:07.367Z,7.97
2018-05-19T15:38:33.688Z,6.97
2018-05-19T15:40:59.887Z,7.57
2018-05-19T15:43:26.175Z,7.23
2018-05-19T15:45:52.880Z,7.13
2018-05-19T15:48:19.243Z,6.90
2018-05-19T15:50:45.871Z,7.33
2018-05-19T15:53:13.461Z,7.47
2018-05-19T15:55:39.730Z,7.40
2018-05-19T15:58:06.034Z,6.93
2018-05-19T16:00:32.313Z,6.70
2018-05-19T16:02:58.760Z,7.33
2018-05-19T16:05:24.962Z,8.17
2018-05-19T16:07:51.160Z,6.47
2018-05-19T16:10:17.437Z,6.43
2018-05-19T16:12:45.634Z,5.30
2018-05-19T16:15:11.902Z,4.53
2018-05-19T16:17:38.140Z,4.90
2018-05-19T16:20:04.428Z,4.63
2018-05-19T16:22:30.649Z,4.77
2018-05-19T16:24:56.917Z,4.00
2018-05-19T16:27:23.241Z,4.30
2018-05-19T16:29:49.462Z,3.83
2018-05-19T16:32:15.723Z,3.97
2018-05-19T16:34:42.038Z,4.83
2018-05-19T16:37:08.199Z,4.60
2018-05-19T16:39:34.846Z,3.90
2018-05-19T16:42:01.068Z,5.10
2018-05-19T16:44:27.305Z,4.67
2018-05-19T16:46:54.002Z,4.77
2018-05-19T16:49:20.244Z,4.60
2018-05-19T16:51:47.238Z,5.50
2018-05-19T16:54:13.503Z,7.00
2018-05-19T16:56:39.714Z,7.10
2018-05-19T16:59:06.583Z,8.27
2018-05-19T17:01:33.249Z,8.43
2018-05-19T17:03:59.870Z,9.17
2018-05-19T17:06:26.122Z,9.50
2018-05-19T17:08:52.743Z,9.00
2018-05-19T17:11:19.362Z,9.73
2018-05-19T17:13:45.598Z,10.27
2018-05-19T17:16:11.939Z,10.13
2018-05-19T17:18:38.195Z,10.57
2018-05-19T17:21:04.418Z,10.30
2018-05-19T17:23:30.688Z,10.20
2018-05-19T17:25:57.043Z,9.70
2018-05-19T17:28:24.114Z,9.00
2018-05-19T17:30:50.400Z,10.33
2018-05-19T17:33:16.660Z,9.63
2018-05-19T17:35:43.301Z,10.23
2018-05-19T17:38:10.006Z,10.00
2018-05-19T17:40:36.309Z,9.87
2018-05-19T17:43:02.574Z,10.20
2018-05-19T17:45:29.761Z,10.10
2018-05-19T17:47:56.026Z,9.13
2018-05-19T17:50:22.247Z,9.13
2018-05-19T17:52:48.456Z,9.03
2018-05-19T17:55:14.724Z,10.60
2018-05-19T17:57:40.996Z,9.20
2018-05-19T18:00:07.634Z,9.50
2018-05-19T18:02:34.270Z,9.03
2018-05-19T18:05:00.945Z,9.77
2018-05-19T18:07:27.240Z,9.20
2018-05-19T18:09:53.454Z,8.90
2018-05-19T18:12:19.962Z,10.00
2018-05-19T18:14:46.537Z,9.37
2018-05-19T18:17:13.233Z,7.50
2018-05-19T18:19:39.502Z,8.07
2018-05-19T18:22:06.114Z,9.43
2018-05-19T18:24:32.365Z,8.97
2018-05-19T18:26:58.968Z,8.33
2018-05-19T18:29:25.323Z,8.20
2018-05-19T18:31:51.544Z,7.33
2018-05-19T18:34:17.839Z,9.00
2018-05-19T18:36:44.099Z,8.30
2018-05-19T18:39:10.327Z,8.70
2018-05-19T18:41:36.577Z,7.93
2018-05-19T18:44:03.224Z,8.10
2018-05-19T18:46:29.890Z,8.90
2018-05-19T18:48:56.216Z,8.13
2018-05-19T18:51:22.542Z,8.60
2018-05-19T18:53:48.857Z,9.27
2018-05-19T18:56:15.797Z,8.80
2018-05-19T18:58:42.494Z,9.77
2018-05-19T19:01:09.842Z,9.20
2018-05-19T19:03:36.161Z,8.70
2018-05-19T19:06:02.464Z,8.20
2018-05-19T19:08:28.771Z,9.43
2018-05-19T19:10:55.522Z,9.47
2018-05-19T19:13:21.867Z,9.97
2018-05-19T19:15:48.228Z,8.90
2018-05-19T19:18:14.500Z,9.20
2018-05-19T19:20:41.173Z,8.60
2018-05-19T19:23:07.428Z,9.40
2018-05-19T19:25:33.659Z,9.30
2018-05-19T19:27:59.985Z,9.10
2018-05-19T19:30:26.267Z,8.57
2018-05-19T19:32:52.899Z,9.27
2018-05-19T19:35:19.583Z,9.43
2018-05-19T19:37:45.798Z,9.43
2018-05-19T19:40:12.033Z,10.10
2018-05-19T19:42:38.298Z,9.57
2018-05-19T19:45:04.513Z,9.77
2018-05-19T19:47:31.355Z,9.30
2018-05-19T19:49:57.645Z,9.23
2018-05-19T19:52:23.843Z,10.30
2018-05-19T19:54:50.084Z,9.07
2018-05-19T19:57:16.370Z,9.73
2018-05-19T19:59:42.689Z,9.43
2018-05-19T20:02:08.926Z,9.37
2018-05-19T20:04:35.160Z,10.10
2018-05-19T20:07:01.424Z,9.70
2018-05-19T20:09:27.777Z,8.60
2018-05-19T20:11:53.996Z,9.67
2018-05-19T20:14:20.247Z,9.27
2018-05-19T20:16:46.492Z,10.20
2018-05-19T20:19:12.771Z,10.10
2018-05-19T20:21:39.044Z,8.53
2018-05-19T20:24:05.294Z,8.60
2018-05-19T20:26:32.541Z,9.10
2018-05-19T20:28:58.807Z,9.60
2018-05-19T20:31:25.505Z,9.43
2018-05-19T20:33:52.658Z,9.10
2018-05-19T20:36:19.523Z,10.23
2018-05-19T20:38:45.774Z,9.90
2018-05-19T20:41:12.367Z,9.00
2018-05-19T20:43:38.659Z,8.10
2018-05-19T20:46:04.933Z,10.80
2018-05-19T20:48:31.231Z,9.30
2018-05-19T20:50:58.172Z,8.80
2018-05-19T20:53:25.334Z,9.77
2018-05-19T20:55:52.370Z,9.77
2018-05-19T20:58:18.694Z,10.90
2018-05-19T21:00:44.954Z,11.23
2018-05-19T21:03:11.213Z,11.30
2018-05-19T21:05:37.481Z,10.67
2018-05-19T21:08:04.390Z,10.27
2018-05-19T21:10:31.925Z,10.27
2018-05-19T21:12:58.217Z,10.33
2018-05-19T21:15:24.460Z,10.73
2018-05-19T21:17:50.720Z,10.50
2018-05-19T21:20:17.030Z,10.73
2018-05-19T21:22:43.257Z,10.30
2018-05-19T21:25:09.476Z,11.53
2018-05-19T21:27:35.771Z,12.20
2018-05-19T21:30:02.057Z,12.70
2018-05-19T21:32:28.272Z,12.40
2018-05-19T21:34:54.540Z,11.17
2018-05-19T21:37:21.168Z,10.97
2018-05-19T21:39:47.747Z,11.60
2018-05-19T21:42:14.019Z,12.53
2018-05-19T21:44:40.241Z,9.43
2018-05-19T21:47:06.443Z,8.83
2018-05-19T21:49:32.690Z,8.30
2018-05-19T21:51:58.911Z,7.60
2018-05-19T21:54:25.173Z,9.10
2018-05-19T21:56:51.447Z,9.10
2018-05-19T21:59:17.679Z,8.20
2018-05-19T22:01:43.902Z,8.93
2018-05-19T22:04:10.136Z,8.37
2018-05-19T22:06:36.409Z,9.90
2018-05-19T22:09:02.722Z,8.83
2018-05-19T22:11:28.983Z,9.40
2018-05-19T22:13:55.631Z,8.10
2018-05-19T22:16:21.888Z,8.80
2018-05-19T22:18:48.118Z,7.97
2018-05-19T22:21:14.407Z,8.50
2018-05-19T22:23:41.018Z,9.30
2018-05-19T22:26:07.270Z,8.63
2018-05-19T22:28:33.507Z,8.60
2018-05-19T22:31:00.120Z,8.90
2018-05-19T22:33:26.356Z,9.17
2018-05-19T22:35:52.569Z,8.70
2018-05-19T22:38:18.791Z,9.10
2018-05-19T22:40:45.073Z,8.70
2018-05-19T22:43:11.319Z,7.97
2018-05-19T22:45:37.538Z,9.27
2018-05-19T22:48:03.815Z,8.87
2018-05-19T22:50:30.802Z,9.00
2018-05-19T22:52:57.056Z,8.37
2018-05-19T22:55:23.262Z,8.97
2018-05-19T22:57:49.507Z,10.10
2018-05-19T23:00:18.574Z,10.40
2018-05-19T23:02:44.804Z,9.03
2018-05-19T23:05:11.041Z,10.17
2018-05-19T23:07:37.288Z,10.10
2018-05-19T23:10:03.498Z,10.47
2018-05-19T23:12:29.752Z,9.73
2018-05-19T23:14:56.011Z,9.97
2018-05-19T23:17:23.157Z,10.90
2018-05-19T23:19:49.931Z,10.40
2018-05-19T23:22:16.200Z,11.97
2018-05-19T23:24:42.402Z,11.10
2018-05-19T23:27:08.668Z,10.90
2018-05-19T23:29:34.930Z,12.00
2018-05-19T23:32:01.164Z,10.67
2018-05-19T23:34:27.393Z,12.60
2018-05-19T23:36:53.610Z,12.63
2018-05-19T23:39:19.833Z,12.50
2018-05-19T23:41:46.114Z,11.97
2018-05-19T23:44:12.334Z,11.70
2018-05-19T23:46:38.580Z,11.40
2018-05-19T23:49:04.763Z,11.90
2018-05-19T23:51:30.994Z,11.47
2018-05-19T23:53:57.630Z,12.70
2018-05-19T23:56:23.828Z,12.00
2018-05-19T23:58:50.060Z,12.50
